sensor_id;sensor_type;location;lat;lon;timestamp;pressure;altitude;pressure_sealevel;temperature;humidity
73016;BME280;61893;50.074;14.440;2023-11-18T00:01:11;98868.81;;;4.81;68.09
73016;BME280;61893;50.074;14.440;2023-11-18T00:03:58;98865.66;;;4.88;68.20
73016;BME280;61893;50.074;14.440;2023-11-18T00:06:24;98869.38;;;4.73;69.75
73016;BME280;61893;50.074;14.440;2023-11-18T00:08:56;98876.84;;;4.79;69.07
73016;BME280;61893;50.074;14.440;2023-11-18T00:11:29;98874.63;;;4.86;69.01
73016;BME280;61893;50.074;14.440;2023-11-18T00:13:55;98885.06;;;4.87;69.19
73016;BME280;61893;50.074;14.440;2023-11-18T00:16:23;98883.50;;;4.59;72.02
73016;BME280;61893;50.074;14.440;2023-11-18T00:19:01;98878.13;;;4.73;71.55
73016;BME280;61893;50.074;14.440;2023-11-18T00:21:50;98883.72;;;4.69;71.85
73016;BME280;61893;50.074;14.440;2023-11-18T00:24:36;98887.00;;;4.60;72.22
73016;BME280;61893;50.074;14.440;2023-11-18T00:27:04;98897.44;;;4.61;71.74
73016;BME280;61893;50.074;14.440;2023-11-18T00:29:33;98897.22;;;4.64;71.85
73016;BME280;61893;50.074;14.440;2023-11-18T00:32:35;98893.84;;;4.49;72.42
73016;BME280;61893;50.074;14.440;2023-11-18T00:35:32;98901.13;;;4.59;72.27
73016;BME280;61893;50.074;14.440;2023-11-18T00:38:14;98905.94;;;4.52;72.47
73016;BME280;61893;50.074;14.440;2023-11-18T00:40:47;98913.03;;;4.51;72.52
73016;BME280;61893;50.074;14.440;2023-11-18T00:43:12;98906.59;;;4.43;72.30
73016;BME280;61893;50.074;14.440;2023-11-18T00:46:02;98916.16;;;4.31;72.51
73016;BME280;61893;50.074;14.440;2023-11-18T00:48:44;98912.69;;;4.43;72.28
73016;BME280;61893;50.074;14.440;2023-11-18T00:51:26;98936.19;;;4.34;72.40
73016;BME280;61893;50.074;14.440;2023-11-18T00:54:16;98932.09;;;4.29;73.50
73016;BME280;61893;50.074;14.440;2023-11-18T00:57:23;98939.47;;;4.37;72.51
73016;BME280;61893;50.074;14.440;2023-11-18T00:59:57;98943.06;;;4.36;73.52
73016;BME280;61893;50.074;14.440;2023-11-18T01:02:33;98947.09;;;4.02;76.93
73016;BME280;61893;50.074;14.440;2023-11-18T01:05:04;98944.16;;;4.06;79.57
73016;BME280;61893;50.074;14.440;2023-11-18T01:07:30;98948.41;;;3.95;80.56
73016;BME280;61893;50.074;14.440;2023-11-18T01:09:58;98943.16;;;3.95;80.81
73016;BME280;61893;50.074;14.440;2023-11-18T01:12:40;98953.31;;;4.01;80.28
73016;BME280;61893;50.074;14.440;2023-11-18T01:15:09;98943.16;;;3.95;80.13
73016;BME280;61893;50.074;14.440;2023-11-18T01:17:36;98941.19;;;3.98;79.53
73016;BME280;61893;50.074;14.440;2023-11-18T01:20:02;98949.09;;;4.11;78.98
73016;BME280;61893;50.074;14.440;2023-11-18T01:22:46;98943.69;;;3.87;79.27
73016;BME280;61893;50.074;14.440;2023-11-18T01:25:25;98938.75;;;3.95;79.25
73016;BME280;61893;50.074;14.440;2023-11-18T01:27:57;98938.97;;;3.92;78.35
73016;BME280;61893;50.074;14.440;2023-11-18T01:30:25;98943.28;;;3.93;78.48
73016;BME280;61893;50.074;14.440;2023-11-18T01:32:54;98938.84;;;3.94;78.97
73016;BME280;61893;50.074;14.440;2023-11-18T01:35:20;98940.56;;;3.80;78.63
73016;BME280;61893;50.074;14.440;2023-11-18T01:37:46;98949.16;;;3.97;79.33
73016;BME280;61893;50.074;14.440;2023-11-18T01:40:16;98940.84;;;3.90;78.75
73016;BME280;61893;50.074;14.440;2023-11-18T01:42:43;98949.91;;;3.99;78.38
73016;BME280;61893;50.074;14.440;2023-11-18T01:45:09;98949.91;;;3.99;78.39
73016;BME280;61893;50.074;14.440;2023-11-18T01:47:37;98945.19;;;4.04;78.41
73016;BME280;61893;50.074;14.440;2023-11-18T01:50:06;98942.78;;;4.01;78.04
73016;BME280;61893;50.074;14.440;2023-11-18T01:52:48;98947.66;;;4.20;78.20
73016;BME280;61893;50.074;14.440;2023-11-18T01:55:16;98948.50;;;4.20;77.81
73016;BME280;61893;50.074;14.440;2023-11-18T01:57:51;98950.91;;;4.23;77.08
73016;BME280;61893;50.074;14.440;2023-11-18T02:00:19;98954.75;;;4.32;77.36
73016;BME280;61893;50.074;14.440;2023-11-18T02:02:51;98959.47;;;4.27;76.64
73016;BME280;61893;50.074;14.440;2023-11-18T02:05:26;98970.03;;;4.40;76.16
73016;BME280;61893;50.074;14.440;2023-11-18T02:07:54;98969.19;;;4.39;75.97
73016;BME280;61893;50.074;14.440;2023-11-18T02:10:20;98969.69;;;4.32;76.56
73016;BME280;61893;50.074;14.440;2023-11-18T02:13:07;98968.31;;;4.26;76.36
73016;BME280;61893;50.074;14.440;2023-11-18T02:15:56;98971.69;;;4.28;76.68
73016;BME280;61893;50.074;14.440;2023-11-18T02:18:28;98979.72;;;4.39;76.45
73016;BME280;61893;50.074;14.440;2023-11-18T02:20:55;98977.63;;;4.44;76.16
73016;BME280;61893;50.074;14.440;2023-11-18T02:23:27;98973.28;;;4.43;75.75
73016;BME280;61893;50.074;14.440;2023-11-18T02:25:54;98971.28;;;4.34;76.22
73016;BME280;61893;50.074;14.440;2023-11-18T02:28:40;98973.50;;;4.40;76.51
73016;BME280;61893;50.074;14.440;2023-11-18T02:31:15;98967.72;;;4.35;76.58
73016;BME280;61893;50.074;14.440;2023-11-18T02:33:55;98975.28;;;4.27;76.98
73016;BME280;61893;50.074;14.440;2023-11-18T02:36:27;98975.50;;;4.37;76.90
73016;BME280;61893;50.074;14.440;2023-11-18T02:39:08;98970.56;;;4.45;76.32
73016;BME280;61893;50.074;14.440;2023-11-18T02:41:38;98974.88;;;4.46;76.92
73016;BME280;61893;50.074;14.440;2023-11-18T02:44:06;98972.91;;;4.49;76.95
73016;BME280;61893;50.074;14.440;2023-11-18T02:46:51;98977.63;;;4.44;76.85
73016;BME280;61893;50.074;14.440;2023-11-18T02:49:24;98978.97;;;4.37;77.11
73016;BME280;61893;50.074;14.440;2023-11-18T02:51:53;98981.44;;;4.53;76.06
73016;BME280;61893;50.074;14.440;2023-11-18T02:54:20;98985.88;;;4.53;76.79
73016;BME280;61893;50.074;14.440;2023-11-18T02:56:49;98979.94;;;4.49;77.05
73016;BME280;61893;50.074;14.440;2023-11-18T02:59:16;98985.22;;;4.36;77.55
73016;BME280;61893;50.074;14.440;2023-11-18T03:01:42;98991.44;;;4.35;78.53
73016;BME280;61893;50.074;14.440;2023-11-18T03:04:11;98988.03;;;4.33;77.98
73016;BME280;61893;50.074;14.440;2023-11-18T03:06:39;98986.03;;;4.37;78.47
73016;BME280;61893;50.074;14.440;2023-11-18T03:09:06;98991.09;;;4.40;77.93
73016;BME280;61893;50.074;14.440;2023-11-18T03:11:34;98987.53;;;4.41;77.81
73016;BME280;61893;50.074;14.440;2023-11-18T03:14:02;98987.22;;;4.33;78.08
73016;BME280;61893;50.074;14.440;2023-11-18T03:16:44;98979.88;;;4.23;78.51
73016;BME280;61893;50.074;14.440;2023-11-18T03:19:10;98987.69;;;4.25;78.25
73016;BME280;61893;50.074;14.440;2023-11-18T03:21:42;98986.66;;;4.27;77.98
73016;BME280;61893;50.074;14.440;2023-11-18T03:24:15;98994.00;;;4.10;79.13
73016;BME280;61893;50.074;14.440;2023-11-18T03:26:44;98982.22;;;4.28;78.66
73016;BME280;61893;50.074;14.440;2023-11-18T03:29:13;98992.97;;;4.25;77.87
73016;BME280;61893;50.074;14.440;2023-11-18T03:31:57;98989.16;;;4.16;78.41
73016;BME280;61893;50.074;14.440;2023-11-18T03:34:44;98988.25;;;4.30;78.26
73016;BME280;61893;50.074;14.440;2023-11-18T03:37:10;98990.25;;;4.26;77.83
73016;BME280;61893;50.074;14.440;2023-11-18T03:39:40;98996.03;;;4.32;77.75
73016;BME280;61893;50.074;14.440;2023-11-18T03:42:14;99001.50;;;4.28;77.32
73016;BME280;61893;50.074;14.440;2023-11-18T03:44:44;99001.63;;;4.27;77.46
73016;BME280;61893;50.074;14.440;2023-11-18T03:47:15;99003.16;;;4.17;77.80
73016;BME280;61893;50.074;14.440;2023-11-18T03:49:43;98997.41;;;4.37;78.22
73016;BME280;61893;50.074;14.440;2023-11-18T03:52:24;99006.00;;;4.54;77.97
73016;BME280;61893;50.074;14.440;2023-11-18T03:54:55;99006.09;;;4.52;77.76
73016;BME280;61893;50.074;14.440;2023-11-18T03:57:32;99006.53;;;4.59;77.67
73016;BME280;61893;50.074;14.440;2023-11-18T04:00:25;99002.31;;;4.56;77.01
73016;BME280;61893;50.074;14.440;2023-11-18T04:03:07;99007.28;;;4.61;76.84
73016;BME280;61893;50.074;14.440;2023-11-18T04:05:36;99018.47;;;4.64;76.53
73016;BME280;61893;50.074;14.440;2023-11-18T04:08:43;99016.66;;;4.65;77.19
73016;BME280;61893;50.074;14.440;2023-11-18T04:11:25;99019.09;;;4.68;76.38
73016;BME280;61893;50.074;14.440;2023-11-18T04:13:53;99031.03;;;4.73;75.70
73016;BME280;61893;50.074;14.440;2023-11-18T04:17:05;99022.16;;;4.74;75.68
73016;BME280;61893;50.074;14.440;2023-11-18T04:19:34;99026.38;;;4.77;76.31
73016;BME280;61893;50.074;14.440;2023-11-18T04:22:15;99025.97;;;4.70;76.44
73016;BME280;61893;50.074;14.440;2023-11-18T04:25:24;99029.97;;;4.76;75.72
73016;BME280;61893;50.074;14.440;2023-11-18T04:28:28;99028.72;;;4.82;75.86
73016;BME280;61893;50.074;14.440;2023-11-18T04:31:01;99036.28;;;4.86;75.00
73016;BME280;61893;50.074;14.440;2023-11-18T04:33:38;99045.38;;;4.82;75.27
73016;BME280;61893;50.074;14.440;2023-11-18T04:36:35;99046.75;;;4.88;74.51
73016;BME280;61893;50.074;14.440;2023-11-18T04:39:18;99055.81;;;4.84;74.79
73016;BME280;61893;50.074;14.440;2023-11-18T04:42:06;99052.78;;;4.90;74.75
73016;BME280;61893;50.074;14.440;2023-11-18T04:44:56;99046.00;;;4.86;74.58
73016;BME280;61893;50.074;14.440;2023-11-18T04:47:48;99047.06;;;4.96;74.65
73016;BME280;61893;50.074;14.440;2023-11-18T04:50:42;99053.28;;;4.95;74.38
73016;BME280;61893;50.074;14.440;2023-11-18T04:53:28;99047.81;;;4.98;74.67
73016;BME280;61893;50.074;14.440;2023-11-18T04:55:54;99057.22;;;5.02;74.27
73016;BME280;61893;50.074;14.440;2023-11-18T04:58:22;99057.00;;;5.05;74.56
73016;BME280;61893;50.074;14.440;2023-11-18T05:00:56;99052.47;;;5.07;73.82
73016;BME280;61893;50.074;14.440;2023-11-18T05:03:24;99055.00;;;4.96;74.25
73016;BME280;61893;50.074;14.440;2023-11-18T05:05:50;99059.31;;;5.10;74.36
73016;BME280;61893;50.074;14.440;2023-11-18T05:08:32;99060.78;;;4.88;74.47
73016;BME280;61893;50.074;14.440;2023-11-18T05:10:59;99059.63;;;5.05;74.25
73016;BME280;61893;50.074;14.440;2023-11-18T05:13:25;99061.53;;;4.90;74.99
73016;BME280;61893;50.074;14.440;2023-11-18T05:15:55;99060.97;;;4.85;74.78
73016;BME280;61893;50.074;14.440;2023-11-18T05:18:27;99070.91;;;4.94;74.09
73016;BME280;61893;50.074;14.440;2023-11-18T05:21:08;99079.34;;;4.87;75.20
73016;BME280;61893;50.074;14.440;2023-11-18T05:23:36;99080.72;;;4.92;74.34
73016;BME280;61893;50.074;14.440;2023-11-18T05:26:11;99081.44;;;4.94;74.11
73016;BME280;61893;50.074;14.440;2023-11-18T05:28:37;99078.72;;;4.96;74.59
73016;BME280;61893;50.074;14.440;2023-11-18T05:31:18;99082.28;;;4.95;74.46
73016;BME280;61893;50.074;14.440;2023-11-18T05:33:49;99078.50;;;4.99;74.19
73016;BME280;61893;50.074;14.440;2023-11-18T05:36:20;99069.94;;;4.83;74.19
73016;BME280;61893;50.074;14.440;2023-11-18T05:39:12;99082.06;;;4.85;74.71
73016;BME280;61893;50.074;14.440;2023-11-18T05:41:43;99071.66;;;4.96;74.12
73016;BME280;61893;50.074;14.440;2023-11-18T05:44:21;99080.06;;;4.89;74.27
73016;BME280;61893;50.074;14.440;2023-11-18T05:46:58;99080.06;;;4.89;74.45
73016;BME280;61893;50.074;14.440;2023-11-18T05:49:27;99082.28;;;4.95;73.75
73016;BME280;61893;50.074;14.440;2023-11-18T05:52:09;99084.00;;;4.96;73.56
73016;BME280;61893;50.074;14.440;2023-11-18T05:54:51;99088.31;;;4.97;73.97
73016;BME280;61893;50.074;14.440;2023-11-18T05:57:20;99085.25;;;5.03;73.09
73016;BME280;61893;50.074;14.440;2023-11-18T06:00:14;99090.31;;;5.06;72.73
73016;BME280;61893;50.074;14.440;2023-11-18T06:02:49;99091.69;;;4.99;72.87
73016;BME280;61893;50.074;14.440;2023-11-18T06:05:44;99087.25;;;5.00;73.55
73016;BME280;61893;50.074;14.440;2023-11-18T06:08:17;99094.75;;;4.93;73.31
73016;BME280;61893;50.074;14.440;2023-11-18T06:10:45;99094.97;;;5.03;72.59
73016;BME280;61893;50.074;14.440;2023-11-18T06:13:14;99093.06;;;5.05;72.41
73016;BME280;61893;50.074;14.440;2023-11-18T06:15:52;99089.91;;;5.00;72.66
73016;BME280;61893;50.074;14.440;2023-11-18T06:18:45;99094.34;;;4.99;72.56
73016;BME280;61893;50.074;14.440;2023-11-18T06:21:25;99094.88;;;5.04;72.17
73016;BME280;61893;50.074;14.440;2023-11-18T06:24:19;99096.47;;;5.07;71.44
73016;BME280;61893;50.074;14.440;2023-11-18T06:27:00;99094.13;;;5.15;71.86
73016;BME280;61893;50.074;14.440;2023-11-18T06:29:31;99099.81;;;5.09;71.85
73016;BME280;61893;50.074;14.440;2023-11-18T06:32:26;99107.84;;;5.07;71.82
73016;BME280;61893;50.074;14.440;2023-11-18T06:34:55;99109.75;;;4.92;71.06
73016;BME280;61893;50.074;14.440;2023-11-18T06:37:36;99113.84;;;4.96;70.98
73016;BME280;61893;50.074;14.440;2023-11-18T06:40:05;99116.91;;;5.03;70.71
73016;BME280;61893;50.074;14.440;2023-11-18T06:42:42;99114.94;;;5.07;71.33
73016;BME280;61893;50.074;14.440;2023-11-18T06:45:10;99117.13;;;5.00;70.41
73016;BME280;61893;50.074;14.440;2023-11-18T06:47:41;99130.22;;;5.02;70.96
73016;BME280;61893;50.074;14.440;2023-11-18T06:50:25;99127.25;;;5.06;70.81
73016;BME280;61893;50.074;14.440;2023-11-18T06:53:06;99125.59;;;5.18;70.29
73016;BME280;61893;50.074;14.440;2023-11-18T06:55:48;99125.69;;;5.16;70.21
73016;BME280;61893;50.074;14.440;2023-11-18T06:58:14;99134.91;;;5.24;69.84
73016;BME280;61893;50.074;14.440;2023-11-18T07:01:00;99141.94;;;5.23;69.72
73016;BME280;61893;50.074;14.440;2023-11-18T07:04:02;99141.00;;;5.24;69.82
73016;BME280;61893;50.074;14.440;2023-11-18T07:06:44;99138.03;;;5.29;69.16
73016;BME280;61893;50.074;14.440;2023-11-18T07:09:22;99141.22;;;5.21;69.09
73016;BME280;61893;50.074;14.440;2023-11-18T07:11:53;99144.06;;;5.31;68.39
73016;BME280;61893;50.074;14.440;2023-11-18T07:14:42;99143.84;;;5.21;68.63
73016;BME280;61893;50.074;14.440;2023-11-18T07:17:10;99146.63;;;5.32;67.79
73016;BME280;61893;50.074;14.440;2023-11-18T07:19:59;99148.38;;;5.32;68.38
73016;BME280;61893;50.074;14.440;2023-11-18T07:22:26;99151.34;;;5.40;67.74
73016;BME280;61893;50.074;14.440;2023-11-18T07:25:13;99161.19;;;5.38;67.37
73016;BME280;61893;50.074;14.440;2023-11-18T07:27:42;99158.94;;;5.32;67.24
73016;BME280;61893;50.074;14.440;2023-11-18T07:30:10;99155.59;;;5.42;67.34
73016;BME280;61893;50.074;14.440;2023-11-18T07:32:39;99160.84;;;5.42;67.27
73016;BME280;61893;50.074;14.440;2023-11-18T07:35:24;99156.41;;;5.43;67.65
73016;BME280;61893;50.074;14.440;2023-11-18T07:37:53;99168.34;;;5.36;68.20
73016;BME280;61893;50.074;14.440;2023-11-18T07:40:45;99164.00;;;5.35;68.71
73016;BME280;61893;50.074;14.440;2023-11-18T07:43:17;99161.28;;;5.36;68.46
73016;BME280;61893;50.074;14.440;2023-11-18T07:47:28;99158.00;;;5.46;68.35
73016;BME280;61893;50.074;14.440;2023-11-18T07:50:40;99172.06;;;5.59;67.47
73016;BME280;61893;50.074;14.440;2023-11-18T07:53:07;99166.88;;;5.57;67.77
73016;BME280;61893;50.074;14.440;2023-11-18T07:55:54;99167.00;;;5.56;67.15
73016;BME280;61893;50.074;14.440;2023-11-18T07:59:34;99165.81;;;5.60;67.61
73016;BME280;61893;50.074;14.440;2023-11-18T08:03:18;99172.91;;;5.72;66.66
73016;BME280;61893;50.074;14.440;2023-11-18T08:06:54;99167.44;;;5.75;67.14
73016;BME280;61893;50.074;14.440;2023-11-18T08:09:29;99170.34;;;5.83;66.79
73016;BME280;61893;50.074;14.440;2023-11-18T08:11:57;99159.16;;;5.80;66.89
73016;BME280;61893;50.074;14.440;2023-11-18T08:14:29;99160.00;;;5.80;66.08
73016;BME280;61893;50.074;14.440;2023-11-18T08:17:09;99162.75;;;5.92;66.02
73016;BME280;61893;50.074;14.440;2023-11-18T08:20:07;99152.88;;;5.95;66.78
73016;BME280;61893;50.074;14.440;2023-11-18T08:22:43;99169.59;;;6.20;65.75
73016;BME280;61893;50.074;14.440;2023-11-18T08:25:36;99170.34;;;6.22;65.41
73016;BME280;61893;50.074;14.440;2023-11-18T08:28:27;99181.78;;;6.09;65.20
73016;BME280;61893;50.074;14.440;2023-11-18T08:31:18;99185.28;;;6.10;65.39
73016;BME280;61893;50.074;14.440;2023-11-18T08:33:44;99183.22;;;6.26;65.22
73016;BME280;61893;50.074;14.440;2023-11-18T08:36:13;99191.22;;;6.38;64.92
73016;BME280;61893;50.074;14.440;2023-11-18T08:38:59;99193.38;;;6.32;64.37
73016;BME280;61893;50.074;14.440;2023-11-18T08:41:47;99201.72;;;6.39;64.45
73016;BME280;61893;50.074;14.440;2023-11-18T08:44:33;99199.22;;;6.49;64.56
73016;BME280;61893;50.074;14.440;2023-11-18T08:47:29;99204.22;;;6.41;64.62
73016;BME280;61893;50.074;14.440;2023-11-18T08:50:40;99205.03;;;6.67;63.50
73016;BME280;61893;50.074;14.440;2023-11-18T08:53:37;99206.72;;;6.55;63.36
73016;BME280;61893;50.074;14.440;2023-11-18T08:56:38;99209.22;;;6.69;63.23
73016;BME280;61893;50.074;14.440;2023-11-18T08:59:36;99212.94;;;6.91;62.26
73016;BME280;61893;50.074;14.440;2023-11-18T09:02:20;99212.56;;;6.84;62.46
73016;BME280;61893;50.074;14.440;2023-11-18T09:05:04;99213.84;;;6.79;61.95
73016;BME280;61893;50.074;14.440;2023-11-18T09:07:41;99229.59;;;6.80;62.31
73016;BME280;61893;50.074;14.440;2023-11-18T09:10:44;99232.47;;;6.77;62.17
73016;BME280;61893;50.074;14.440;2023-11-18T09:13:25;99234.00;;;6.92;61.28
73016;BME280;61893;50.074;14.440;2023-11-18T09:16:43;99228.31;;;6.86;61.15
73016;BME280;61893;50.074;14.440;2023-11-18T09:19:09;99237.59;;;6.67;62.00
73016;BME280;61893;50.074;14.440;2023-11-18T09:21:56;99246.47;;;6.66;61.41
73016;BME280;61893;50.074;14.440;2023-11-18T09:25:45;99242.22;;;7.00;60.17
73016;BME280;61893;50.074;14.440;2023-11-18T09:28:54;99247.34;;;7.39;59.00
73016;BME280;61893;50.074;14.440;2023-11-18T09:31:27;99245.63;;;7.38;59.81
73016;BME280;61893;50.074;14.440;2023-11-18T09:33:52;99247.16;;;7.29;59.36
73016;BME280;61893;50.074;14.440;2023-11-18T09:36:33;99240.59;;;7.11;59.49
73016;BME280;61893;50.074;14.440;2023-11-18T09:38:59;99241.06;;;7.40;58.68
73016;BME280;61893;50.074;14.440;2023-11-18T09:41:44;99238.09;;;7.44;58.53
73016;BME280;61893;50.074;14.440;2023-11-18T09:44:47;99240.75;;;7.44;58.51
73016;BME280;61893;50.074;14.440;2023-11-18T09:47:46;99238.44;;;7.40;58.69
73016;BME280;61893;50.074;14.440;2023-11-18T09:50:55;99238.56;;;7.38;58.78
73016;BME280;61893;50.074;14.440;2023-11-18T09:54:05;99233.63;;;7.45;58.50
73016;BME280;61893;50.074;14.440;2023-11-18T09:57:16;99227.41;;;7.57;57.88
73016;BME280;61893;50.074;14.440;2023-11-18T10:03:09;99227.59;;;7.43;58.53
73016;BME280;61893;50.074;14.440;2023-11-18T10:06:37;99222.47;;;7.64;57.01
73016;BME280;61893;50.074;14.440;2023-11-18T10:09:38;99225.03;;;7.65;56.99
73016;BME280;61893;50.074;14.440;2023-11-18T10:13:14;99228.97;;;7.60;56.61
73016;BME280;61893;50.074;14.440;2023-11-18T10:16:32;99219.97;;;7.62;57.08
73016;BME280;61893;50.074;14.440;2023-11-18T10:20:15;99223.22;;;7.66;56.93
73016;BME280;61893;50.074;14.440;2023-11-18T10:23:20;99226.00;;;7.64;57.20
73016;BME280;61893;50.074;14.440;2023-11-18T10:27:15;99227.91;;;7.62;56.52
73016;BME280;61893;50.074;14.440;2023-11-18T10:30:42;99227.56;;;7.67;56.13
73016;BME280;61893;50.074;14.440;2023-11-18T10:33:29;99227.22;;;7.83;56.60
73016;BME280;61893;50.074;14.440;2023-11-18T10:36:19;99231.44;;;7.85;55.62
73016;BME280;61893;50.074;14.440;2023-11-18T10:39:10;99223.25;;;7.88;56.05
73016;BME280;61893;50.074;14.440;2023-11-18T10:42:02;99234.91;;;7.75;55.77
73016;BME280;61893;50.074;14.440;2023-11-18T10:44:58;99229.47;;;7.65;56.06
73016;BME280;61893;50.074;14.440;2023-11-18T10:48:25;99236.00;;;7.83;55.75
73016;BME280;61893;50.074;14.440;2023-11-18T10:51:50;99226.94;;;7.63;55.25
73016;BME280;61893;50.074;14.440;2023-11-18T10:55:02;99228.44;;;7.79;55.88
73016;BME280;61893;50.074;14.440;2023-11-18T10:57:41;99231.13;;;7.55;55.62
73016;BME280;61893;50.074;14.440;2023-11-18T11:00:57;99244.53;;;7.64;55.11
73016;BME280;61893;50.074;14.440;2023-11-18T11:03:59;99247.78;;;7.68;55.35
73016;BME280;61893;50.074;14.440;2023-11-18T11:07:11;99243.66;;;7.53;55.02
73016;BME280;61893;50.074;14.440;2023-11-18T11:10:15;99249.91;;;7.52;54.89
73016;BME280;61893;50.074;14.440;2023-11-18T11:12:50;99243.78;;;7.62;54.72
73016;BME280;61893;50.074;14.440;2023-11-18T11:15:31;99248.72;;;7.56;54.31
73016;BME280;61893;50.074;14.440;2023-11-18T11:18:25;99244.03;;;7.59;54.74
73016;BME280;61893;50.074;14.440;2023-11-18T11:21:37;99247.66;;;7.70;53.76
73016;BME280;61893;50.074;14.440;2023-11-18T11:24:20;99246.22;;;7.65;54.10
73016;BME280;61893;50.074;14.440;2023-11-18T11:30:23;99245.81;;;7.23;52.31
73016;BME280;61893;50.074;14.440;2023-11-18T11:33:43;99250.03;;;7.26;52.28
73016;BME280;61893;50.074;14.440;2023-11-18T11:36:12;99252.50;;;7.40;52.36
73016;BME280;61893;50.074;14.440;2023-11-18T11:39:02;99255.09;;;7.53;52.03
73016;BME280;61893;50.074;14.440;2023-11-18T11:41:52;99246.63;;;7.48;52.02
73016;BME280;61893;50.074;14.440;2023-11-18T11:45:11;99253.31;;;7.65;51.49
73016;BME280;61893;50.074;14.440;2023-11-18T11:51:29;99257.69;;;7.42;51.82
73016;BME280;61893;50.074;14.440;2023-11-18T11:55:25;99252.69;;;7.50;50.96
73016;BME280;61893;50.074;14.440;2023-11-18T11:58:53;99258.16;;;7.36;51.57
73016;BME280;61893;50.074;14.440;2023-11-18T12:02:40;99259.75;;;7.50;51.70
73016;BME280;61893;50.074;14.440;2023-11-18T12:06:00;99257.47;;;7.45;52.16
73016;BME280;61893;50.074;14.440;2023-11-18T12:09:56;99250.03;;;7.50;52.40
73016;BME280;61893;50.074;14.440;2023-11-18T12:13:23;99268.09;;;7.32;53.17
73016;BME280;61893;50.074;14.440;2023-11-18T12:16:07;99256.69;;;7.32;53.17
73016;BME280;61893;50.074;14.440;2023-11-18T12:22:00;99247.94;;;7.42;52.36
73016;BME280;61893;50.074;14.440;2023-11-18T12:24:39;99246.06;;;7.56;52.17
73016;BME280;61893;50.074;14.440;2023-11-18T12:27:09;99228.97;;;7.60;51.42
73016;BME280;61893;50.074;14.440;2023-11-18T12:29:44;99236.69;;;7.63;51.67
73016;BME280;61893;50.074;14.440;2023-11-18T12:41:39;99236.81;;;7.61;51.18
73016;BME280;61893;50.074;14.440;2023-11-18T12:49:24;99217.94;;;7.77;50.84
73016;BME280;61893;50.074;14.440;2023-11-18T12:52:04;99223.19;;;7.55;51.65
73016;BME280;61893;50.074;14.440;2023-11-18T12:54:36;99214.72;;;7.50;52.03
73016;BME280;61893;50.074;14.440;2023-11-18T12:57:12;99205.34;;;7.45;52.43
73016;BME280;61893;50.074;14.440;2023-11-18T13:00:07;99194.63;;;7.12;52.65
73016;BME280;61893;50.074;14.440;2023-11-18T13:03:07;99193.09;;;7.20;53.25
73016;BME280;61893;50.074;14.440;2023-11-18T13:05:40;99203.97;;;7.29;52.95
73016;BME280;61893;50.074;14.440;2023-11-18T13:08:05;99197.94;;;7.27;53.42
73016;BME280;61893;50.074;14.440;2023-11-18T13:10:50;99187.00;;;7.31;53.23
73016;BME280;61893;50.074;14.440;2023-11-18T13:13:26;99188.97;;;7.40;53.84
73016;BME280;61893;50.074;14.440;2023-11-18T13:16:03;99198.97;;;7.48;52.96
73016;BME280;61893;50.074;14.440;2023-11-18T13:18:45;99192.63;;;7.27;53.19
73016;BME280;61893;50.074;14.440;2023-11-18T13:21:27;99183.25;;;7.22;53.44
73016;BME280;61893;50.074;14.440;2023-11-18T13:23:58;99186.88;;;7.21;53.68
73016;BME280;61893;50.074;14.440;2023-11-18T13:26:38;99173.03;;;7.29;54.31
73016;BME280;61893;50.074;14.440;2023-11-18T13:29:07;99174.31;;;7.12;53.85
73016;BME280;61893;50.074;14.440;2023-11-18T13:32:02;99177.88;;;7.00;54.34
73016;BME280;61893;50.074;14.440;2023-11-18T13:34:36;99187.91;;;6.84;54.91
73016;BME280;61893;50.074;14.440;2023-11-18T13:37:06;99187.25;;;6.93;54.66
73016;BME280;61893;50.074;14.440;2023-11-18T13:39:55;99176.53;;;6.94;54.81
73016;BME280;61893;50.074;14.440;2023-11-18T13:42:23;99165.50;;;6.76;55.02
73016;BME280;61893;50.074;14.440;2023-11-18T13:44:52;99159.88;;;6.57;55.60
73016;BME280;61893;50.074;14.440;2023-11-18T13:47:32;99152.84;;;6.69;55.85
73016;BME280;61893;50.074;14.440;2023-11-18T13:50:07;99143.28;;;6.79;55.81
73016;BME280;61893;50.074;14.440;2023-11-18T13:52:50;99149.09;;;6.84;55.79
73016;BME280;61893;50.074;14.440;2023-11-18T13:55:24;99152.91;;;6.80;55.87
73016;BME280;61893;50.074;14.440;2023-11-18T13:58:25;99150.31;;;6.67;56.14
73016;BME280;61893;50.074;14.440;2023-11-18T14:01:10;99161.97;;;6.65;56.33
73016;BME280;61893;50.074;14.440;2023-11-18T14:04:33;99175.75;;;6.57;57.33
73016;BME280;61893;50.074;14.440;2023-11-18T14:07:14;99171.19;;;6.59;56.99
73016;BME280;61893;50.074;14.440;2023-11-18T14:09:43;99168.78;;;6.56;56.82
73016;BME280;61893;50.074;14.440;2023-11-18T14:12:25;99188.03;;;6.45;57.26
73016;BME280;61893;50.074;14.440;2023-11-18T14:15:06;99189.41;;;6.51;56.96
73016;BME280;61893;50.074;14.440;2023-11-18T14:17:47;99191.44;;;6.35;57.30
73016;BME280;61893;50.074;14.440;2023-11-18T14:20:34;99191.16;;;6.26;57.49
73016;BME280;61893;50.074;14.440;2023-11-18T14:23:19;99193.03;;;6.37;57.00
73016;BME280;61893;50.074;14.440;2023-11-18T14:26:07;99192.56;;;6.19;57.87
73016;BME280;61893;50.074;14.440;2023-11-18T14:28:36;99190.72;;;6.32;57.39
73016;BME280;61893;50.074;14.440;2023-11-18T14:31:11;99178.22;;;6.35;58.15
73016;BME280;61893;50.074;14.440;2023-11-18T14:33:42;99183.66;;;6.20;58.38
73016;BME280;61893;50.074;14.440;2023-11-18T14:36:14;99194.31;;;6.31;57.99
73016;BME280;61893;50.074;14.440;2023-11-18T14:39:21;99193.38;;;6.32;57.63
73016;BME280;61893;50.074;14.440;2023-11-18T14:42:05;99182.00;;;6.43;57.82
73016;BME280;61893;50.074;14.440;2023-11-18T14:44:34;99187.22;;;6.32;57.68
73016;BME280;61893;50.074;14.440;2023-11-18T14:47:54;99190.69;;;6.45;57.44
73016;BME280;61893;50.074;14.440;2023-11-18T14:51:37;99178.94;;;6.13;57.94
73016;BME280;61893;50.074;14.440;2023-11-18T14:54:34;99174.50;;;6.00;59.25
73016;BME280;61893;50.074;14.440;2023-11-18T14:57:14;99178.41;;;6.07;58.44